Time;durP1;ratioP1;P1;durP2;ratioP2;P2;SDS_P1;SDS_P2;PMS_P1;PMS_P2;Temp;Humidity;BMP_temperature;BMP_pressure;BME280_temperature;BME280_humidity;BME280_pressure;Samples;Min_cycle;Max_cycle;Signal;HPM_P1;HPM_P2
2022/09/21 00:00:15;;;;;;;3.00;1.60;;;;;;;7.87;100.00;100423.00;6308531;22;20101;-89
2022/09/21 00:02:40;;;;;;;2.30;1.20;;;;;;;7.86;100.00;100420.63;6334969;22;20436;-88
2022/09/21 00:05:06;;;;;;;1.98;1.30;;;;;;;7.89;100.00;100422.56;6335704;22;20298;-88
2022/09/21 00:07:32;;;;;;;2.50;1.40;;;;;;;7.89;100.00;100425.34;6335787;22;20033;-88
2022/09/21 00:09:57;;;;;;;1.30;1.17;;;;;;;7.87;100.00;100422.22;6334921;22;20133;-88
2022/09/21 00:12:23;;;;;;;2.65;1.30;;;;;;;7.88;100.00;100418.28;6335005;22;20025;-77
2022/09/21 00:14:49;;;;;;;1.98;1.20;;;;;;;7.89;100.00;100422.56;6307548;22;20055;-88
2022/09/21 00:17:14;;;;;;;2.22;1.20;;;;;;;7.84;100.00;100434.88;6335285;22;20441;-89
2022/09/21 00:19:40;;;;;;;2.35;1.27;;;;;;;7.81;100.00;100429.34;6336189;22;20014;-89
2022/09/21 00:22:06;;;;;;;1.90;1.10;;;;;;;7.75;100.00;100426.28;6334487;22;20011;-89
2022/09/21 00:24:33;;;;;;;2.95;1.20;;;;;;;7.70;100.00;100428.69;6307591;22;20011;-89
2022/09/21 00:26:59;;;;;;;2.60;1.13;;;;;;;7.66;100.00;100427.94;6307896;22;20057;-89
2022/09/21 00:29:24;;;;;;;2.10;1.40;;;;;;;7.63;100.00;100428.75;6307444;22;20432;-89
2022/09/21 00:31:50;;;;;;;2.55;1.48;;;;;;;7.63;100.00;100423.22;6335328;22;20288;-88
2022/09/21 00:34:15;;;;;;;3.53;1.30;;;;;;;7.63;100.00;100428.75;6334964;22;20007;-77
2022/09/21 00:36:41;;;;;;;3.05;1.30;;;;;;;7.64;100.00;100425.59;6335314;22;20011;-77
2022/09/21 00:39:08;;;;;;;1.58;1.17;;;;;;;7.64;100.00;100430.31;6335044;22;20052;-77
2022/09/21 00:41:33;;;;;;;2.30;1.08;;;;;;;7.63;100.00;100429.53;6334114;22;20030;-77
2022/09/21 00:44:25;;;;;;;4.32;1.33;;;;;;;7.65;100.00;100431.88;6334688;22;20038;-77
2022/09/21 00:46:52;;;;;;;1.92;1.13;;;;;;;7.60;100.00;100435.09;6306547;22;20064;-78
2022/09/21 00:49:19;;;;;;;1.85;1.10;;;;;;;7.54;100.00;100426.44;6281254;22;20006;-79
2022/09/21 00:51:45;;;;;;;4.38;1.30;;;;;;;7.54;100.00;100433.94;6335398;22;20010;-89
2022/09/21 00:54:20;;;;;;;2.28;1.50;;;;;;;7.50;100.00;100436.75;6334953;22;20085;-78
2022/09/21 00:56:46;;;;;;;1.75;1.27;;;;;;;7.47;100.00;100427.31;6335192;22;20473;-78
2022/09/21 00:59:12;;;;;;;2.30;1.40;;;;;;;7.46;100.00;100431.25;6335302;22;19999;-78
2022/09/21 01:01:38;;;;;;;1.92;1.25;;;;;;;7.47;100.00;100427.31;6307311;22;20165;-78
2022/09/21 01:04:05;;;;;;;2.40;1.15;;;;;;;7.46;100.00;100431.25;6306479;22;20034;-76
2022/09/21 01:06:32;;;;;;;1.48;1.17;;;;;;;7.45;100.00;100431.63;6334449;22;20525;-76
2022/09/21 01:08:58;;;;;;;3.50;1.40;;;;;;;7.39;100.00;100420.28;6307121;22;20023;-76
2022/09/21 01:11:35;;;;;;;1.45;1.20;;;;;;;7.39;100.00;100430.53;6306707;22;20045;-76
2022/09/21 01:14:10;;;;;;;2.30;1.35;;;;;;;7.38;100.00;100435.25;6307863;22;20011;-88
2022/09/21 01:16:45;;;;;;;1.60;1.25;;;;;;;7.38;100.00;100429.72;6335562;22;20007;-87
2022/09/21 01:19:51;;;;;;;2.55;1.30;;;;;;;7.38;100.00;100428.94;6337032;22;20361;-88
2022/09/21 01:22:42;;;;;;;2.75;1.40;;;;;;;7.40;100.00;100424.56;6337236;22;20034;-88
2022/09/21 01:25:18;;;;;;;1.90;1.30;;;;;;;7.41;100.00;100434.44;6337325;22;20011;-88
2022/09/21 01:28:13;;;;;;;1.58;1.25;;;;;;;7.42;100.00;100419.44;6309057;22;20015;-88
2022/09/21 01:30:40;;;;;;;2.63;1.35;;;;;;;7.42;100.00;100436.00;6309440;22;20010;-87
2022/09/21 01:33:18;;;;;;;2.70;1.40;;;;;;;7.42;100.00;100440.75;6336772;22;20010;-76
2022/09/21 01:35:49;;;;;;;1.58;1.33;;;;;;;7.42;100.00;100419.44;6336025;22;20015;-77
2022/09/21 01:38:24;;;;;;;1.92;1.30;;;;;;;7.43;100.00;100436.78;6308711;22;20038;-76
2022/09/21 01:40:53;;;;;;;3.53;1.80;;;;;;;7.42;100.00;100438.78;6308898;22;20010;-76
2022/09/21 01:43:25;;;;;;;3.13;1.42;;;;;;;7.36;100.00;100448.66;6308562;22;20011;-76
2022/09/21 01:45:53;;;;;;;1.80;1.35;;;;;;;7.38;100.00;100446.28;6307944;22;20490;-77
2022/09/21 01:48:21;;;;;;;1.77;1.23;;;;;;;7.37;100.00;100450.22;6309449;22;20383;-77
2022/09/21 01:50:53;;;;;;;2.85;1.38;;;;;;;7.37;100.00;100449.44;6308641;22;20424;-88
2022/09/21 01:53:32;;;;;;;1.80;1.48;;;;;;;7.32;100.00;100452.66;6336179;22;20010;-89
2022/09/21 01:56:23;;;;;;;1.95;1.30;;;;;;;7.25;100.00;100449.94;6336548;22;20072;-89
2022/09/21 01:59:14;;;;;;;1.88;1.20;;;;;;;7.30;100.00;100450.28;6336128;22;20046;-89
2022/09/21 02:01:45;;;;;;;2.38;1.15;;;;;;;7.31;100.00;100449.09;6336252;22;20025;-88
2022/09/21 02:04:12;;;;;;;1.65;1.20;;;;;;;7.34;100.00;100451.06;6335568;22;20496;-88
2022/09/21 02:06:40;;;;;;;2.83;1.40;;;;;;;7.35;100.00;100447.09;6309019;22;20011;-89
2022/09/21 02:09:06;;;;;;;3.92;1.40;;;;;;;7.31;100.00;100448.31;6308635;22;20021;-89
2022/09/21 02:11:32;;;;;;;2.72;1.30;;;;;;;7.28;100.00;100449.13;6309211;22;20003;-88
2022/09/21 02:13:57;;;;;;;2.47;1.40;;;;;;;7.24;100.00;100446.38;6335339;22;20039;-89
2022/09/21 02:16:38;;;;;;;2.15;1.63;;;;;;;7.22;100.00;100453.50;6336098;22;20054;-88
2022/09/21 02:19:20;;;;;;;1.75;1.40;;;;;;;7.19;100.00;100449.59;6308383;22;20042;-89
2022/09/21 02:22:04;;;;;;;2.30;1.10;;;;;;;7.21;100.00;100460.19;6336410;22;20044;-88
2022/09/21 02:24:46;;;;;;;2.25;1.52;;;;;;;7.16;100.00;100453.13;6336190;22;20015;-86
2022/09/21 02:27:18;;;;;;;2.13;1.50;;;;;;;7.12;100.00;100457.88;6308314;22;20014;-87
2022/09/21 02:29:51;;;;;;;3.15;1.48;;;;;;;7.06;100.00;100456.75;6336030;22;20080;-77
2022/09/21 02:32:24;;;;;;;2.28;1.77;;;;;;;6.99;100.00;100465.06;6281137;22;20042;-77
2022/09/21 02:35:35;;;;;;;2.55;1.73;;;;;;;6.96;100.00;100458.38;6306733;22;20494;-77
2022/09/21 02:38:25;;;;;;;2.10;1.52;;;;;;;6.95;100.00;100456.03;6152614;23;20021;-78
2022/09/21 02:40:53;;;;;;;4.43;1.48;;;;;;;6.84;100.00;100458.81;6238990;22;20023;-77
2022/09/21 02:43:23;;;;;;;2.90;1.50;;;;;;;6.75;100.00;100463.22;6305675;22;20433;-77
2022/09/21 02:45:55;;;;;;;3.42;1.52;;;;;;;6.71;100.00;100456.94;6334161;22;20471;-77
2022/09/21 02:48:27;;;;;;;3.10;1.70;;;;;;;6.68;100.00;100453.00;6335975;22;20074;-89
2022/09/21 02:50:56;;;;;;;2.47;1.55;;;;;;;6.70;100.00;100452.59;6307383;22;20014;-88
2022/09/21 02:53:27;;;;;;;2.03;1.42;;;;;;;6.55;100.00;100446.38;6307929;22;20003;-88
2022/09/21 02:55:56;;;;;;;2.42;1.40;;;;;;;6.52;100.00;100449.91;6307432;22;20015;-88
2022/09/21 02:58:24;;;;;;;4.43;1.73;;;;;;;6.51;100.00;100454.63;6308195;22;20014;-88
2022/09/21 03:00:49;;;;;;;2.60;1.60;;;;;;;6.56;100.00;100445.97;6335362;22;20060;-88
2022/09/21 03:03:23;;;;;;;2.15;1.60;;;;;;;6.59;100.00;100447.16;6308384;22;20019;-89
2022/09/21 03:05:52;;;;;;;3.30;1.77;;;;;;;6.61;100.00;100441.22;6336267;22;20505;-89
2022/09/21 03:08:18;;;;;;;2.28;1.52;;;;;;;6.62;100.00;100451.06;6335246;22;20416;-77
2022/09/21 03:10:43;;;;;;;2.25;1.70;;;;;;;6.62;100.00;100449.09;6307995;22;20009;-77
2022/09/21 03:13:09;;;;;;;2.20;1.70;;;;;;;6.66;100.00;100454.59;6334428;22;20127;-77
2022/09/21 03:15:36;;;;;;;2.63;1.88;;;;;;;6.71;100.00;100454.97;6308366;22;20006;-77
2022/09/21 03:18:03;;;;;;;2.85;1.67;;;;;;;6.76;100.00;100459.25;6305644;22;20392;-77
2022/09/21 03:20:31;;;;;;;2.92;1.73;;;;;;;6.69;100.00;100459.28;6307264;22;20432;-77
2022/09/21 03:22:57;;;;;;;2.72;1.90;;;;;;;6.61;100.00;100463.25;6334153;22;20351;-77
2022/09/21 03:25:23;;;;;;;2.47;1.60;;;;;;;6.58;100.00;100464.84;6335121;22;20014;-89
2022/09/21 03:27:51;;;;;;;5.50;2.10;;;;;;;6.58;100.00;100464.84;6307120;22;20009;-89
2022/09/21 03:30:17;;;;;;;2.58;1.85;;;;;;;6.57;100.00;100463.28;6334363;22;20096;-89
2022/09/21 03:32:42;;;;;;;2.90;1.83;;;;;;;6.57;100.00;100468.78;6334127;22;20413;-89
2022/09/21 03:35:08;;;;;;;2.20;1.85;;;;;;;6.57;100.00;100466.81;6306144;22;20086;-88
2022/09/21 03:37:34;;;;;;;2.95;1.73;;;;;;;6.56;100.00;100468.00;6334124;22;20006;-89
2022/09/21 03:39:59;;;;;;;3.30;2.03;;;;;;;6.61;100.00;100474.28;6281278;22;20459;-89
2022/09/21 03:42:24;;;;;;;2.58;1.90;;;;;;;6.63;100.00;100478.25;6334720;22;20524;-77
2022/09/21 03:44:50;;;;;;;3.78;2.25;;;;;;;6.65;100.00;100480.56;6304464;22;20072;-88
2022/09/21 03:47:15;;;;;;;3.42;2.13;;;;;;;6.70;100.00;100471.91;6333304;22;20164;-89
2022/09/21 03:49:41;;;;;;;4.22;2.40;;;;;;;6.76;100.00;100486.81;6307106;22;20042;-89
2022/09/21 03:52:06;;;;;;;3.40;2.30;;;;;;;6.76;100.00;100481.31;6334118;22;20025;-89
2022/09/21 03:54:32;;;;;;;3.28;1.80;;;;;;;6.75;100.00;100490.78;6336458;22;20405;-90
2022/09/21 03:56:57;;;;;;;3.75;2.10;;;;;;;6.73;100.00;100490.38;6335042;22;20037;-91
2022/09/21 03:59:23;;;;;;;3.85;2.15;;;;;;;6.70;100.00;100492.00;6336715;22;20003;-90
2022/09/21 04:01:48;;;;;;;2.50;1.90;;;;;;;6.72;100.00;100491.56;6337160;22;20022;-77
2022/09/21 04:04:15;;;;;;;3.15;2.00;;;;;;;6.66;100.00;100493.19;6336621;22;20064;-89
2022/09/21 04:06:40;;;;;;;4.32;2.30;;;;;;;6.68;100.00;100497.09;6363524;22;20295;-89
2022/09/21 04:09:06;;;;;;;2.88;1.92;;;;;;;6.63;100.00;100494.78;6335926;22;20017;-89
2022/09/21 04:11:32;;;;;;;2.15;1.70;;;;;;;6.68;100.00;100490.78;6362487;22;20025;-87
2022/09/21 04:13:57;;;;;;;2.83;2.03;;;;;;;6.62;100.00;100487.69;6349189;22;20088;-89
2022/09/21 04:16:24;;;;;;;2.80;1.90;;;;;;;6.61;100.00;100490.81;6312778;22;20013;-90
2022/09/21 04:18:51;;;;;;;3.55;1.80;;;;;;;6.56;100.00;100495.56;6337231;22;20026;-90
2022/09/21 04:21:17;;;;;;;3.08;2.15;;;;;;;6.57;100.00;100499.13;6333581;22;20059;-77
2022/09/21 04:23:43;;;;;;;5.40;2.40;;;;;;;6.51;100.00;100504.25;6306099;22;20010;-90
2022/09/21 04:26:27;;;;;;;3.33;1.95;;;;;;;6.54;100.00;100513.69;6307617;22;20018;-89
2022/09/21 04:28:54;;;;;;;3.47;2.30;;;;;;;6.51;100.00;100511.75;6307009;22;20376;-90
2022/09/21 04:31:20;;;;;;;3.72;2.20;;;;;;;6.51;100.00;100514.50;6333945;22;20433;-89
2022/09/21 04:33:53;;;;;;;3.58;2.00;;;;;;;6.54;100.00;100516.44;6332445;22;20041;-85
2022/09/21 04:36:21;;;;;;;3.95;2.10;;;;;;;6.56;100.00;100512.09;6311766;22;20036;-90
2022/09/21 04:38:47;;;;;;;4.25;2.70;;;;;;;6.64;100.00;100517.59;6336632;22;20054;-91
2022/09/21 04:41:13;;;;;;;4.63;2.40;;;;;;;6.62;100.00;100517.22;6336428;22;20445;-92
2022/09/21 04:43:42;;;;;;;4.05;2.78;;;;;;;6.69;100.00;100526.25;6334566;22;20015;-78
2022/09/21 04:46:10;;;;;;;3.88;2.60;;;;;;;6.69;100.00;100528.22;6307102;22;20021;-78
2022/09/21 04:48:37;;;;;;;3.30;2.42;;;;;;;6.75;100.00;100535.69;6307591;22;20019;-78
2022/09/21 04:51:02;;;;;;;3.50;2.28;;;;;;;6.79;100.00;100528.19;6336371;22;20007;-78
2022/09/21 04:53:29;;;;;;;5.57;2.47;;;;;;;6.83;100.00;100530.94;6335642;22;20433;-79
2022/09/21 04:55:54;;;;;;;4.88;2.45;;;;;;;6.86;100.00;100535.66;6336443;22;20034;-79
2022/09/21 04:58:21;;;;;;;3.90;2.30;;;;;;;6.91;100.00;100540.75;6336495;22;19999;-91
2022/09/21 05:00:51;;;;;;;3.00;2.30;;;;;;;6.91;100.00;100544.31;6337086;22;20007;-79
2022/09/21 05:03:17;;;;;;;4.22;2.63;;;;;;;6.95;100.00;100538.78;6308621;22;20010;-79
2022/09/21 05:05:52;;;;;;;4.75;2.38;;;;;;;6.96;100.00;100543.06;6335015;22;20034;-79
2022/09/21 05:11:02;;;;;;;4.47;2.78;;;;;;;6.94;100.00;100540.75;6335639;22;20022;-79
2022/09/21 05:13:27;;;;;;;4.07;2.50;;;;;;;6.86;100.00;100521.84;6335315;22;20015;-79
2022/09/21 05:15:53;;;;;;;3.85;2.65;;;;;;;6.96;100.00;100545.84;6335538;22;20099;-79
2022/09/21 05:18:18;;;;;;;3.88;2.30;;;;;;;6.98;100.00;100535.19;6335760;22;20398;-91
2022/09/21 05:20:44;;;;;;;4.60;2.38;;;;;;;7.07;100.00;100529.25;6335919;22;20085;-79
2022/09/21 05:23:09;;;;;;;4.40;2.85;;;;;;;7.10;100.00;100537.50;6331972;22;20007;-79
2022/09/21 05:25:35;;;;;;;3.72;2.20;;;;;;;7.13;100.00;100539.47;6336169;22;20133;-79
2022/09/21 05:28:00;;;;;;;3.97;2.60;;;;;;;7.24;100.00;100551.22;6334143;22;20424;-79
2022/09/21 05:30:26;;;;;;;4.30;2.50;;;;;;;7.29;100.00;100548.06;6307524;22;20010;-79
2022/09/21 05:33:00;;;;;;;4.97;3.00;;;;;;;7.27;100.00;100544.13;6334030;22;20015;-79
2022/09/21 05:36:01;;;;;;;5.15;2.90;;;;;;;7.37;100.00;100549.59;6336606;22;20007;-79
2022/09/21 05:38:27;;;;;;;4.85;2.83;;;;;;;7.44;100.00;100560.56;6336260;22;20345;-93
2022/09/21 05:40:53;;;;;;;4.35;2.53;;;;;;;7.44;100.00;100549.53;6307451;22;20011;-79
2022/09/21 05:43:19;;;;;;;4.05;2.72;;;;;;;7.55;100.00;100562.50;6307447;22;20017;-78
2022/09/21 05:45:48;;;;;;;4.00;2.22;;;;;;;7.61;100.00;100569.16;6336559;22;20017;-79
2022/09/21 05:48:18;;;;;;;3.88;2.80;;;;;;;7.70;100.00;100578.56;6311242;22;20021;-79
2022/09/21 05:51:02;;;;;;;4.45;2.50;;;;;;;7.66;100.00;100568.75;6309255;22;20055;-79
2022/09/21 05:54:05;;;;;;;4.50;2.50;;;;;;;7.68;100.00;100572.69;6280738;22;20076;-79
2022/09/21 05:56:51;;;;;;;4.30;3.00;;;;;;;7.82;100.00;100569.81;6335964;22;20010;-91
2022/09/21 05:59:40;;;;;;;3.70;2.53;;;;;;;8.02;100.00;100572.81;6333487;22;20085;-79
2022/09/21 06:02:17;;;;;;;5.22;2.58;;;;;;;8.20;100.00;100579.00;6307766;22;20170;-79
2022/09/21 06:04:43;;;;;;;5.07;2.83;;;;;;;8.36;100.00;100576.53;6306901;22;20015;-79
2022/09/21 06:07:08;;;;;;;5.45;2.45;;;;;;;8.51;100.00;100577.16;6335875;22;20014;-79
2022/09/21 06:09:34;;;;;;;3.55;2.25;;;;;;;8.70;100.00;100584.06;6336039;22;20010;-79
2022/09/21 06:11:59;;;;;;;4.57;2.58;;;;;;;8.71;100.00;100586.44;6333857;22;20437;-79
2022/09/21 06:14:25;;;;;;;4.00;2.40;;;;;;;8.71;100.00;100591.97;6333294;22;20003;-79
2022/09/21 06:16:51;;;;;;;5.93;2.47;;;;;;;8.68;100.00;100587.28;6334609;22;20014;-90
2022/09/21 06:19:17;;;;;;;5.35;2.50;;;;;;;8.73;100.00;100588.81;6333238;22;20011;-79
2022/09/21 06:21:42;;;;;;;3.72;2.40;;;;;;;8.88;100.00;100592.97;6334129;22;20014;-79
2022/09/21 06:24:08;;;;;;;3.25;2.25;;;;;;;9.11;100.00;100587.56;6333116;22;20021;-79
2022/09/21 06:26:34;;;;;;;4.13;2.28;;;;;;;9.23;100.00;100586.25;6334668;22;20383;-79
2022/09/21 06:28:59;;;;;;;3.47;2.28;;;;;;;9.40;100.00;100589.97;6335792;22;20017;-79
2022/09/21 06:31:28;;;;;;;5.00;2.30;;;;;;;9.50;100.00;100583.53;6308007;22;20379;-79
2022/09/21 06:33:54;;;;;;;4.38;2.30;;;;;;;9.72;100.00;100590.31;6336143;22;20458;-90
2022/09/21 06:36:20;;;;;;;2.97;2.33;;;;;;;9.71;100.00;100585.97;6336237;22;19999;-79
2022/09/21 06:38:45;;;;;;;3.72;2.50;;;;;;;9.75;100.00;100581.16;6335721;22;20019;-79
2022/09/21 06:41:13;;;;;;;4.97;2.40;;;;;;;9.94;100.00;100583.28;6335998;22;20010;-79
2022/09/21 06:43:39;;;;;;;4.75;2.53;;;;;;;10.09;100.00;100579.06;6281866;22;20509;-79
2022/09/21 06:46:04;;;;;;;3.33;2.30;;;;;;;10.27;100.00;100589.91;6335840;22;20043;-79
2022/09/21 06:48:32;;;;;;;3.38;2.15;;;;;;;10.40;100.00;100576.19;6335649;22;20010;-79
2022/09/21 06:51:04;;;;;;;3.80;2.50;;;;;;;10.53;100.00;100568.84;6335605;22;20447;-79
2022/09/21 06:53:32;;;;;;;5.23;2.33;;;;;;;10.67;100.00;100574.16;6335798;22;20018;-79
2022/09/21 06:56:06;;;;;;;3.40;2.40;;;;;;;10.82;100.00;100563.56;6335575;22;20007;-91
2022/09/21 06:58:33;;;;;;;4.15;2.40;;;;;;;10.83;100.00;100559.56;6336503;22;20276;-93
2022/09/21 07:01:09;;;;;;;3.92;2.47;;;;;;;10.93;100.00;100555.78;6283008;22;20098;-91
2022/09/21 07:03:35;;;;;;;3.85;2.20;;;;;;;11.08;100.00;100549.53;6308115;22;20437;-91
2022/09/21 07:06:01;;;;;;;3.92;2.15;;;;;;;11.03;99.94;100538.94;6335665;22;20022;-93
2022/09/21 07:08:27;;;;;;;3.70;2.30;;;;;;;11.19;98.42;100554.88;6335426;22;20015;-91
2022/09/21 07:10:52;;;;;;;3.15;2.25;;;;;;;11.28;98.29;100548.75;6335635;22;20371;-91
2022/09/21 07:13:18;;;;;;;4.03;2.30;;;;;;;11.24;99.13;100557.16;6308038;22;20011;-91
2022/09/21 07:15:43;;;;;;;4.07;2.50;;;;;;;11.58;97.85;100559.56;6336293;22;20010;-91
2022/09/21 07:18:10;;;;;;;3.80;2.22;;;;;;;11.78;97.07;100565.09;6307568;22;20176;-92
2022/09/21 07:20:36;;;;;;;2.50;1.92;;;;;;;11.89;95.61;100580.31;6335136;22;20022;-90
2022/09/21 07:23:14;;;;;;;5.05;2.08;;;;;;;12.10;95.51;100590.16;6335149;22;20007;-91
2022/09/21 07:25:40;;;;;;;2.90;2.10;;;;;;;12.18;95.12;100588.75;6336208;22;20011;-91
2022/09/21 07:28:06;;;;;;;6.20;2.42;;;;;;;12.30;94.26;100576.94;6337677;22;20005;-88
2022/09/21 07:30:34;;;;;;;4.35;2.25;;;;;;;12.65;94.49;100583.59;6336083;22;20014;-79
2022/09/21 07:33:00;;;;;;;2.95;2.40;;;;;;;12.83;90.56;100574.75;6335353;22;20322;-79
2022/09/21 07:35:25;;;;;;;5.43;2.40;;;;;;;12.73;89.66;100589.75;6308574;22;20485;-90
2022/09/21 07:37:51;;;;;;;3.60;2.35;;;;;;;12.49;91.06;100576.06;6337357;22;20015;-90
2022/09/21 07:40:16;;;;;;;2.88;2.22;;;;;;;12.55;91.23;100584.66;6340304;22;20349;-92
2022/09/21 07:42:43;;;;;;;4.72;2.30;;;;;;;12.92;90.73;100595.19;6336492;22;19995;-91
2022/09/21 07:45:09;;;;;;;4.90;2.38;;;;;;;13.09;89.00;100582.78;6307748;22;20353;-91
2022/09/21 07:47:35;;;;;;;3.03;2.20;;;;;;;13.33;87.93;100590.88;6335949;22;20003;-90
2022/09/21 07:50:00;;;;;;;3.40;2.13;;;;;;;13.69;83.90;100585.81;6308160;22;20397;-80
2022/09/21 07:52:26;;;;;;;4.07;2.10;;;;;;;13.46;86.14;100605.63;6307250;22;20014;-92
2022/09/21 07:54:52;;;;;;;2.88;2.08;;;;;;;13.62;84.09;100599.19;6336743;22;20014;-91
2022/09/21 08:00:02;;;;;;;2.70;1.85;;;;;;;13.70;85.06;100586.59;6335659;22;20017;-91
2022/09/21 08:02:37;;;;;;;3.90;1.90;;;;;;;13.96;84.56;100588.16;6335939;22;20089;-90
2022/09/21 08:05:03;;;;;;;2.55;1.85;;;;;;;14.20;81.69;100592.16;6337960;22;20483;-91
2022/09/21 08:07:28;;;;;;;4.32;2.00;;;;;;;13.99;82.76;100592.84;6335472;22;20093;-91
2022/09/21 08:09:54;;;;;;;3.35;2.10;;;;;;;14.09;81.21;100590.94;6336253;22;20018;-91
2022/09/21 08:12:19;;;;;;;3.00;1.95;;;;;;;13.93;82.23;100595.41;6336345;22;20382;-90
2022/09/21 08:14:46;;;;;;;4.32;1.67;;;;;;;14.11;82.79;100602.44;6336071;22;20014;-93
2022/09/21 08:17:12;;;;;;;4.45;2.05;;;;;;;14.12;81.40;100595.63;6308556;22;20085;-90
2022/09/21 08:19:38;;;;;;;4.45;1.83;;;;;;;14.19;81.47;100600.97;6309724;22;20033;-91
2022/09/21 08:22:04;;;;;;;3.05;1.95;;;;;;;14.35;80.26;100596.09;6336671;22;20018;-90
2022/09/21 08:24:30;;;;;;;4.43;1.90;;;;;;;14.32;77.80;100599.72;6335252;22;19999;-92
2022/09/21 08:26:56;;;;;;;2.92;1.98;;;;;;;14.43;78.74;100600.19;6309632;22;20322;-92
2022/09/21 08:29:25;;;;;;;3.28;2.00;;;;;;;14.68;77.90;100604.91;6307616;22;20074;-91
2022/09/21 08:31:52;;;;;;;2.83;1.77;;;;;;;14.59;77.40;100606.84;6336392;22;20011;-90
2022/09/21 08:34:18;;;;;;;4.13;1.80;;;;;;;14.62;77.41;100600.34;6335777;22;20078;-91
2022/09/21 08:36:44;;;;;;;2.83;1.80;;;;;;;14.71;77.65;100606.81;6337037;22;20017;-90
2022/09/21 08:39:10;;;;;;;2.45;1.52;;;;;;;15.09;77.38;100600.28;6335337;22;20032;-91
2022/09/21 08:41:54;;;;;;;3.38;1.80;;;;;;;15.40;74.82;100599.13;6336519;22;20511;-91
2022/09/21 08:44:20;;;;;;;;;;;;;;;15.45;74.85;100600.53;6308497;22;20011;-91
2022/09/21 08:46:53;;;;;;;2.35;1.60;;;;;;;15.36;74.63;100592.91;6308898;22;19994;-81
2022/09/21 08:49:22;;;;;;;3.08;2.00;;;;;;;15.44;74.21;100599.00;6335734;22;20081;-91
2022/09/21 08:51:54;;;;;;;3.95;1.90;;;;;;;15.44;72.15;100603.81;6308372;22;20420;-80
2022/09/21 08:54:28;;;;;;;2.53;1.77;;;;;;;15.51;73.37;100620.31;6333874;22;20014;-81
2022/09/21 08:56:53;;;;;;;2.92;1.90;;;;;;;15.36;74.20;100614.47;6282492;22;20011;-80
2022/09/21 08:59:19;;;;;;;5.50;1.92;;;;;;;15.18;72.44;100620.69;6307139;22;20011;-80
2022/09/21 09:02:02;;;;;;;3.15;1.80;;;;;;;15.39;71.20;100608.75;6307313;22;20045;-81
2022/09/21 09:04:35;;;;;;;2.25;1.67;;;;;;;15.33;71.42;100618.16;6334512;22;20010;-80
2022/09/21 09:07:28;;;;;;;4.50;1.80;;;;;;;15.16;72.40;100619.59;6282139;22;20337;-90
2022/09/21 09:10:38;;;;;;;2.05;1.70;;;;;;;15.61;70.82;100611.53;6308091;22;20401;-80
2022/09/21 09:13:30;;;;;;;5.82;1.63;;;;;;;15.60;71.86;100612.78;6259768;22;20046;-80
2022/09/21 09:16:04;;;;;;;2.15;1.40;;;;;;;15.75;70.72;100613.78;6306983;22;20026;-81
2022/09/21 09:18:37;;;;;;;2.20;1.45;;;;;;;15.66;70.70;100616.53;6307810;22;20143;-80
2022/09/21 09:21:07;;;;;;;4.22;1.55;;;;;;;15.69;70.96;100612.81;6335645;22;20041;-80
2022/09/21 09:24:01;;;;;;;3.58;1.67;;;;;;;15.84;70.15;100608.25;6312276;22;20015;-80
2022/09/21 09:26:31;;;;;;;2.75;1.60;;;;;;;15.97;69.41;100596.19;6333559;22;20011;-80
2022/09/21 09:29:31;;;;;;;3.78;1.70;;;;;;;15.88;69.84;100607.31;6318258;22;20010;-91
2022/09/21 09:31:58;;;;;;;2.85;1.58;;;;;;;15.96;70.72;100601.00;6308590;22;20019;-91
2022/09/21 09:34:30;;;;;;;6.50;1.90;;;;;;;16.14;69.82;100605.84;6314313;22;20010;-89
2022/09/21 09:36:58;;;;;;;3.00;1.70;;;;;;;15.87;69.53;100598.16;6311045;22;20510;-90
2022/09/21 09:39:24;;;;;;;2.92;1.73;;;;;;;15.34;71.04;100598.16;6339903;22;20011;-90
2022/09/21 09:42:47;;;;;;;2.42;1.55;;;;;;;15.28;71.34;100602.00;6309564;22;20007;-90
2022/09/21 09:45:17;;;;;;;3.58;1.75;;;;;;;15.08;73.19;100609.91;6182041;23;20087;-89
2022/09/21 09:48:01;;;;;;;3.40;2.00;;;;;;;15.21;72.31;100603.03;6180968;23;20128;-80
2022/09/21 09:50:29;;;;;;;3.42;1.50;;;;;;;15.77;70.62;100588.16;6295245;22;20076;-80
2022/09/21 09:53:19;;;;;;;3.13;1.67;;;;;;;16.16;69.23;100592.19;6308450;22;20010;-80
2022/09/21 09:55:49;;;;;;;2.67;1.58;;;;;;;16.23;66.90;100583.50;6289309;22;20018;-80
2022/09/21 09:58:38;;;;;;;2.35;1.42;;;;;;;16.08;67.21;100594.50;6334819;22;20081;-80
2022/09/21 10:01:03;;;;;;;2.13;1.50;;;;;;;16.01;68.23;100586.41;6306172;22;20089;-79
2022/09/21 10:03:29;;;;;;;2.58;1.30;;;;;;;15.73;66.74;100574.31;6333431;22;20049;-80
2022/09/21 10:05:55;;;;;;;1.85;1.20;;;;;;;16.01;66.37;100580.03;6307438;22;20006;-80
2022/09/21 10:08:35;;;;;;;1.98;1.02;;;;;;;16.59;64.37;100585.63;6333774;22;20006;-80
2022/09/21 10:11:02;;;;;;;4.05;1.42;;;;;;;16.94;64.33;100586.13;6306648;22;20022;-80
2022/09/21 10:13:29;;;;;;;2.67;1.45;;;;;;;17.14;63.86;100587.19;6334855;22;20589;-81
2022/09/21 10:15:57;;;;;;;2.22;1.27;;;;;;;16.88;63.95;100585.16;6306369;22;20429;-80
2022/09/21 10:18:26;;;;;;;2.45;1.35;;;;;;;16.75;63.51;100577.69;6307560;22;20011;-80
2022/09/21 10:20:54;;;;;;;2.85;1.35;;;;;;;16.52;63.18;100569.88;6306085;22;20011;-79
2022/09/21 10:23:20;;;;;;;2.83;1.50;;;;;;;16.84;65.23;100574.13;6281473;22;20014;-90
2022/09/21 10:25:55;;;;;;;1.98;1.50;;;;;;;16.70;64.52;100569.91;6308535;22;20010;-89
2022/09/21 10:28:22;;;;;;;2.60;1.50;;;;;;;16.42;65.95;100576.69;6309760;22;20379;-90
2022/09/21 10:30:48;;;;;;;3.53;1.55;;;;;;;16.05;67.56;100572.25;6309959;22;20010;-89
2022/09/21 10:33:21;;;;;;;3.10;1.50;;;;;;;16.42;68.29;100571.09;6284729;22;20029;-86
2022/09/21 10:35:51;;;;;;;3.40;1.55;;;;;;;16.68;64.18;100577.22;6310090;22;20007;-87
2022/09/21 10:38:19;;;;;;;2.30;1.60;;;;;;;16.67;62.79;100570.06;6309704;22;20011;-89
2022/09/21 10:40:45;;;;;;;3.00;1.60;;;;;;;17.06;64.20;100557.94;6307613;22;20007;-88
2022/09/21 10:43:44;;;;;;;2.80;1.40;;;;;;;17.37;63.75;100568.91;6308156;22;20068;-89
2022/09/21 10:46:10;;;;;;;2.60;1.27;;;;;;;17.44;60.97;100576.22;6334646;22;20037;-79
2022/09/21 10:48:35;;;;;;;3.38;1.42;;;;;;;17.33;62.14;100556.31;6307323;22;20516;-79
2022/09/21 10:51:01;;;;;;;2.05;1.33;;;;;;;17.65;61.93;100570.44;6307346;22;20170;-79
2022/09/21 10:53:28;;;;;;;2.10;1.40;;;;;;;17.60;62.14;100571.06;6333416;22;20025;-79
2022/09/21 10:56:04;;;;;;;2.88;1.67;;;;;;;17.65;62.77;100564.03;6335027;22;20010;-79
2022/09/21 10:58:31;;;;;;;1.63;1.10;;;;;;;17.80;58.58;100575.34;6334035;22;20014;-79
2022/09/21 11:01:12;;;;;;;3.00;1.27;;;;;;;17.86;58.02;100567.84;6306884;22;20011;-89
2022/09/21 11:04:05;;;;;;;2.30;1.30;;;;;;;17.88;57.75;100573.75;6333226;22;20049;-89
2022/09/21 11:06:40;;;;;;;1.85;1.40;;;;;;;17.63;58.69;100566.56;6328800;22;20436;-90
2022/09/21 11:09:13;;;;;;;2.58;1.33;;;;;;;17.82;58.30;100561.63;6307456;22;20214;-90
2022/09/21 11:11:38;;;;;;;2.25;1.35;;;;;;;17.92;57.88;100577.16;6334299;22;20019;-90
2022/09/21 11:14:13;;;;;;;4.97;1.25;;;;;;;17.57;57.59;100563.59;6334959;22;20003;-89
2022/09/21 11:16:46;;;;;;;2.35;1.20;;;;;;;17.79;60.27;100559.78;6307596;22;20014;-89
2022/09/21 11:19:46;;;;;;;1.90;1.17;;;;;;;18.38;56.52;100564.44;6307520;22;20007;-89
2022/09/21 11:22:25;;;;;;;2.30;1.10;;;;;;;18.50;55.71;100554.22;6334344;22;20022;-89
2022/09/21 11:25:02;;;;;;;2.30;1.00;;;;;;;18.32;53.71;100557.91;6334837;22;20420;-87
2022/09/21 11:27:34;;;;;;;2.53;1.30;;;;;;;18.60;53.68;100553.69;6335698;22;20330;-88
2022/09/21 11:30:12;;;;;;;2.50;1.40;;;;;;;18.11;55.06;100550.59;6336095;22;20090;-89
2022/09/21 11:33:02;;;;;;;2.33;1.10;;;;;;;18.33;52.88;100544.66;6335157;22;20007;-88
2022/09/21 11:35:46;;;;;;;7.43;3.50;;;;;;;18.25;53.44;100544.25;6335527;22;20068;-89
2022/09/21 11:38:21;;;;;;;;;;;;;;;18.38;53.26;100552.44;6336280;22;20379;-79
2022/09/21 11:40:49;;;;;;;2.10;1.40;;;;;;;18.45;52.79;100552.06;6305223;22;20319;-91
2022/09/21 11:43:46;;;;;;;3.53;1.27;;;;;;;18.74;51.64;100540.94;6335451;22;20305;-80
2022/09/21 11:46:49;;;;;;;2.00;1.15;;;;;;;18.74;51.64;100546.56;6335118;22;20007;-80